Time,TemperatureF,DewpointF,PressureIn,WindDirection,WindDirectionDegrees,WindSpeedMPH,WindSpeedGustMPH,Humidity,HourlyPrecipIn,Conditions,Clouds,dailyrainin,SolarRadiationWatts/m^2,SoftwareType,DateUTC
2013-11-12 00:03:00,29.0,28.0,-100.00,NW,318,4.0,11.0,95,0.00,,,-99.99,0.000000,,2013-11-12 05:03:00,
2013-11-12 00:44:00,28.0,27.0,-100.00,NW,314,5.0,11.0,94,0.00,,,0.10,0.000000,,2013-11-12 05:44:00,
2013-11-12 00:54:00,28.0,27.0,-100.00,NW,314,5.0,11.0,94,0.00,,,0.10,0.000000,,2013-11-12 05:54:00,
2013-11-12 01:03:00,28.0,27.0,-100.00,NW,314,5.0,11.0,94,0.00,,,0.10,0.000000,,2013-11-12 06:03:00,
2013-11-12 01:42:00,28.0,27.0,-100.00,NW,319,4.0,10.0,94,0.00,,,0.10,0.000000,,2013-11-12 06:42:00,
2013-11-12 01:52:00,28.0,27.0,-100.00,NW,319,4.0,10.0,94,0.00,,,0.10,0.000000,,2013-11-12 06:52:00,
2013-11-12 02:02:00,28.0,27.0,-100.00,NW,319,4.0,10.0,94,0.00,,,0.10,0.000000,,2013-11-12 07:02:00,
2013-11-12 02:42:00,27.0,25.0,-100.00,NW,306,3.0,10.0,93,0.00,,,0.10,0.000000,,2013-11-12 07:42:00,
2013-11-12 02:52:00,27.0,25.0,-100.00,NW,306,3.0,10.0,93,0.00,,,0.10,0.000000,,2013-11-12 07:52:00,
2013-11-12 03:02:00,27.0,25.0,-100.00,NW,306,3.0,10.0,93,0.00,,,0.10,0.000000,,2013-11-12 08:02:00,
2013-11-12 03:42:00,26.0,24.0,-100.00,West,278,1.0,5.0,93,0.00,,,0.10,0.000000,,2013-11-12 08:42:00,
2013-11-12 03:52:00,26.0,24.0,-100.00,West,278,1.0,5.0,93,0.00,,,0.10,0.000000,,2013-11-12 08:52:00,
2013-11-12 04:02:00,26.0,24.0,-100.00,West,278,1.0,5.0,93,0.00,,,0.10,0.000000,,2013-11-12 09:02:00,
2013-11-12 04:42:00,26.0,24.0,-100.00,West,274,1.0,5.0,92,0.00,,,0.10,0.000000,,2013-11-12 09:42:00,
2013-11-12 04:54:00,26.0,24.0,-100.00,West,274,1.0,5.0,92,0.00,,,0.10,0.000000,,2013-11-12 09:54:00,
2013-11-12 05:03:00,26.0,24.0,-100.00,West,274,1.0,5.0,92,0.00,,,0.10,0.000000,,2013-11-12 10:03:00,
2013-11-12 05:42:00,25.0,23.0,-100.00,WNW,284,0.0,6.0,91,0.00,,,0.10,0.000000,,2013-11-12 10:42:00,
2013-11-12 05:53:00,25.0,23.0,-100.00,WNW,284,0.0,6.0,91,0.00,,,0.10,0.000000,,2013-11-12 10:53:00,
2013-11-12 06:02:00,25.0,23.0,-100.00,WNW,284,0.0,6.0,91,0.00,,,0.10,0.000000,,2013-11-12 11:02:00,
2013-11-12 07:42:00,25.0,22.0,-100.00,NW,318,2.0,6.0,89,-99.99,,,0.10,0.000000,,2013-11-12 12:42:00,
2013-11-12 07:52:00,25.0,22.0,-100.00,NW,318,2.0,6.0,89,-99.99,,,0.10,0.000000,,2013-11-12 12:52:00,
2013-11-12 08:02:00,25.0,22.0,-100.00,NW,318,2.0,6.0,89,-99.99,,,0.10,0.000000,,2013-11-12 13:02:00,
2013-11-12 08:42:00,24.0,21.0,-100.00,NW,314,3.0,6.0,87,0.00,,,0.10,10.000000,,2013-11-12 13:42:00,
2013-11-12 08:52:00,24.0,21.0,-100.00,NW,314,3.0,6.0,87,0.00,,,0.10,10.000000,,2013-11-12 13:52:00,
2013-11-12 09:02:00,24.0,21.0,-100.00,NW,314,3.0,6.0,87,0.00,,,0.10,10.000000,,2013-11-12 14:02:00,
2013-11-12 09:42:00,27.0,23.0,-100.00,NW,317,6.0,13.0,84,0.00,,,0.10,53.000000,,2013-11-12 14:42:00,
2013-11-12 09:53:00,27.0,23.0,-100.00,NW,317,6.0,13.0,84,0.00,,,0.10,53.000000,,2013-11-12 14:53:00,
2013-11-12 10:02:00,27.0,23.0,-100.00,NW,317,6.0,13.0,84,0.00,,,0.10,53.000000,,2013-11-12 15:02:00,
2013-11-12 10:44:00,29.0,23.0,-100.00,NW,317,5.0,17.0,79,0.00,,,0.10,80.000000,,2013-11-12 15:44:00,
2013-11-12 10:53:00,29.0,23.0,-100.00,NW,317,5.0,17.0,79,0.00,,,0.10,80.000000,,2013-11-12 15:53:00,
2013-11-12 11:04:00,29.0,23.0,-100.00,NW,317,5.0,17.0,79,0.00,,,0.10,80.000000,,2013-11-12 16:04:00,
2013-11-12 11:42:00,29.0,23.0,-100.00,NW,306,5.0,15.0,78,0.00,,,0.10,93.000000,,2013-11-12 16:42:00,
2013-11-12 11:53:00,29.0,23.0,-100.00,NW,306,5.0,15.0,78,0.00,,,0.10,93.000000,,2013-11-12 16:53:00,
2013-11-12 12:02:00,29.0,23.0,-100.00,NW,306,5.0,15.0,78,0.00,,,0.10,93.000000,,2013-11-12 17:02:00,
2013-11-12 12:43:00,31.0,23.0,-100.00,NW,323,6.0,16.0,73,0.09,,,0.19,174.000000,,2013-11-12 17:43:00,
2013-11-12 12:52:00,31.0,23.0,-100.00,NW,323,6.0,16.0,73,0.09,,,0.19,174.000000,,2013-11-12 17:52:00,
2013-11-12 13:02:00,31.0,23.0,-100.00,NW,323,6.0,16.0,73,0.09,,,0.19,174.000000,,2013-11-12 18:02:00,
2013-11-12 13:42:00,33.0,23.0,-100.00,NW,317,6.0,14.0,65,0.07,,,0.26,386.000000,,2013-11-12 18:42:00,
2013-11-12 13:52:00,33.0,23.0,-100.00,NW,317,6.0,14.0,65,0.07,,,0.26,386.000000,,2013-11-12 18:52:00,
2013-11-12 14:01:00,33.0,23.0,-100.00,NW,317,6.0,14.0,65,0.07,,,0.26,386.000000,,2013-11-12 19:01:00,
2013-11-12 14:42:00,31.0,21.0,-100.00,NNW,336,6.0,16.0,67,0.02,,,0.28,409.000000,,2013-11-12 19:42:00,
2013-11-12 14:52:00,31.0,21.0,-100.00,NNW,336,6.0,16.0,67,0.02,,,0.28,409.000000,,2013-11-12 19:52:00,
2013-11-12 15:02:00,31.0,21.0,-100.00,NNW,336,6.0,16.0,67,0.02,,,0.28,409.000000,,2013-11-12 20:02:00,
2013-11-12 15:42:00,30.0,22.0,-100.00,NNW,341,6.0,14.0,72,0.00,,,0.28,390.000000,,2013-11-12 20:42:00,
2013-11-12 15:52:00,30.0,22.0,-100.00,NNW,341,6.0,14.0,72,0.00,,,0.28,390.000000,,2013-11-12 20:52:00,
2013-11-12 16:02:00,30.0,22.0,-100.00,NNW,341,6.0,14.0,72,0.00,,,0.28,390.000000,,2013-11-12 21:02:00,
2013-11-12 16:44:00,28.0,24.0,-100.00,NNW,335,7.0,15.0,84,0.00,,,0.28,116.000000,,2013-11-12 21:44:00,
2013-11-12 16:54:00,28.0,24.0,-100.00,NNW,335,7.0,15.0,84,0.00,,,0.28,116.000000,,2013-11-12 21:54:00,
2013-11-12 17:04:00,28.0,24.0,-100.00,NNW,335,7.0,15.0,84,0.00,,,0.28,116.000000,,2013-11-12 22:04:00,
2013-11-12 17:44:00,27.0,24.0,-100.00,NNW,328,5.0,10.0,88,0.00,,,0.27,37.000000,,2013-11-12 22:44:00,
2013-11-12 17:54:00,27.0,24.0,-100.00,NNW,328,5.0,10.0,88,0.00,,,0.27,37.000000,,2013-11-12 22:54:00,
2013-11-12 18:03:00,27.0,24.0,-100.00,NNW,328,5.0,10.0,88,0.00,,,0.27,37.000000,,2013-11-12 23:03:00,
2013-11-12 18:42:00,26.0,24.0,-100.00,NW,326,7.0,16.0,92,0.00,,,0.25,0.000000,,2013-11-12 23:42:00,
2013-11-12 18:54:00,26.0,24.0,-100.00,NW,326,7.0,16.0,92,0.00,,,0.25,0.000000,,2013-11-12 23:54:00,
2013-11-12 19:02:00,26.0,24.0,-100.00,NW,326,7.0,16.0,92,0.00,,,0.25,0.000000,,2013-11-13 00:02:00,
2013-11-12 19:42:00,25.0,22.0,-100.00,NW,304,1.0,11.0,90,0.00,,,0.23,0.000000,,2013-11-13 00:42:00,
2013-11-12 19:52:00,25.0,22.0,-100.00,NW,304,1.0,11.0,90,0.00,,,0.23,0.000000,,2013-11-13 00:52:00,
2013-11-12 20:01:00,25.0,22.0,-100.00,NW,304,1.0,11.0,90,0.00,,,0.23,0.000000,,2013-11-13 01:01:00,
2013-11-12 20:42:00,25.0,23.0,-100.00,NW,326,5.0,17.0,92,0.00,,,0.19,0.000000,,2013-11-13 01:42:00,
2013-11-12 20:52:00,25.0,23.0,-100.00,NW,326,5.0,17.0,92,0.00,,,0.19,0.000000,,2013-11-13 01:52:00,
2013-11-12 21:02:00,25.0,23.0,-100.00,NW,326,5.0,17.0,92,0.00,,,0.19,0.000000,,2013-11-13 02:02:00,
2013-11-12 21:42:00,24.0,22.0,-100.00,NNW,331,5.0,11.0,90,0.00,,,0.18,0.000000,,2013-11-13 02:42:00,
2013-11-12 21:52:00,24.0,22.0,-100.00,NNW,331,5.0,11.0,90,0.00,,,0.18,0.000000,,2013-11-13 02:52:00,
2013-11-12 22:02:00,24.0,22.0,-100.00,NNW,331,5.0,11.0,90,0.00,,,0.18,0.000000,,2013-11-13 03:02:00,
2013-11-12 22:45:00,24.0,22.0,-100.00,NW,317,3.0,10.0,91,0.00,,,0.18,0.000000,,2013-11-13 03:45:00,
2013-11-12 22:54:00,24.0,22.0,-100.00,NW,317,3.0,10.0,91,0.00,,,0.18,0.000000,,2013-11-13 03:54:00,
2013-11-12 23:04:00,24.0,22.0,-100.00,NW,317,3.0,10.0,91,0.00,,,0.18,0.000000,,2013-11-13 04:04:00,
2013-11-12 23:43:00,24.0,21.0,-100.00,NNW,329,5.0,12.0,89,0.00,,,0.18,0.000000,,2013-11-13 04:43:00,
2013-11-12 23:53:00,24.0,21.0,-100.00,NNW,329,5.0,12.0,89,0.00,,,0.18,0.000000,,2013-11-13 04:53:00,